sensor_id;sensor_type;location;lat;lon;timestamp;P1;durP1;ratioP1;P2;durP2;ratioP2
17199;SDS011;8716;52.268;20.968;2023-12-28T00:00:54;19.63;;;11.48;;
17199;SDS011;8716;52.268;20.968;2023-12-28T00:03:22;16.05;;;14.10;;
17199;SDS011;8716;52.268;20.968;2023-12-28T00:05:51;11.52;;;10.95;;
17199;SDS011;8716;52.268;20.968;2023-12-28T00:08:20;26.60;;;14.45;;
17199;SDS011;8716;52.268;20.968;2023-12-28T00:10:49;12.38;;;11.77;;
17199;SDS011;8716;52.268;20.968;2023-12-28T00:13:17;12.10;;;11.50;;
17199;SDS011;8716;52.268;20.968;2023-12-28T00:15:45;10.57;;;10.00;;
17199;SDS011;8716;52.268;20.968;2023-12-28T00:18:13;22.60;;;12.18;;
17199;SDS011;8716;52.268;20.968;2023-12-28T00:20:44;9.32;;;7.85;;
17199;SDS011;8716;52.268;20.968;2023-12-28T00:23:12;13.85;;;9.90;;
17199;SDS011;8716;52.268;20.968;2023-12-28T00:25:42;12.70;;;10.73;;
17199;SDS011;8716;52.268;20.968;2023-12-28T00:28:10;11.27;;;10.70;;
17199;SDS011;8716;52.268;20.968;2023-12-28T00:30:38;15.00;;;11.57;;
17199;SDS011;8716;52.268;20.968;2023-12-28T00:33:07;12.75;;;12.07;;
17199;SDS011;8716;52.268;20.968;2023-12-28T00:35:35;9.32;;;8.82;;
17199;SDS011;8716;52.268;20.968;2023-12-28T00:38:03;9.05;;;8.48;;
17199;SDS011;8716;52.268;20.968;2023-12-28T00:40:33;10.93;;;10.18;;
17199;SDS011;8716;52.268;20.968;2023-12-28T00:43:02;16.00;;;9.98;;
17199;SDS011;8716;52.268;20.968;2023-12-28T00:45:33;16.77;;;7.88;;
17199;SDS011;8716;52.268;20.968;2023-12-28T00:48:01;17.13;;;12.20;;
17199;SDS011;8716;52.268;20.968;2023-12-28T00:50:30;9.50;;;9.00;;
17199;SDS011;8716;52.268;20.968;2023-12-28T00:52:58;9.70;;;9.20;;
17199;SDS011;8716;52.268;20.968;2023-12-28T00:55:29;9.48;;;8.68;;
17199;SDS011;8716;52.268;20.968;2023-12-28T00:57:58;10.90;;;9.80;;
17199;SDS011;8716;52.268;20.968;2023-12-28T01:00:28;8.75;;;8.25;;
17199;SDS011;8716;52.268;20.968;2023-12-28T01:02:56;15.52;;;11.52;;
17199;SDS011;8716;52.268;20.968;2023-12-28T01:05:24;11.98;;;11.38;;
17199;SDS011;8716;52.268;20.968;2023-12-28T01:07:55;10.38;;;9.85;;
17199;SDS011;8716;52.268;20.968;2023-12-28T01:10:24;9.63;;;9.13;;
17199;SDS011;8716;52.268;20.968;2023-12-28T01:12:52;13.07;;;11.00;;
17199;SDS011;8716;52.268;20.968;2023-12-28T01:15:24;9.65;;;9.15;;
17199;SDS011;8716;52.268;20.968;2023-12-28T01:17:53;8.65;;;8.15;;
17199;SDS011;8716;52.268;20.968;2023-12-28T01:20:23;11.27;;;7.90;;
17199;SDS011;8716;52.268;20.968;2023-12-28T01:22:51;24.15;;;10.68;;
17199;SDS011;8716;52.268;20.968;2023-12-28T01:25:22;11.38;;;10.40;;
17199;SDS011;8716;52.268;20.968;2023-12-28T01:27:52;16.30;;;14.57;;
17199;SDS011;8716;52.268;20.968;2023-12-28T01:30:21;13.43;;;12.65;;
17199;SDS011;8716;52.268;20.968;2023-12-28T01:32:50;12.15;;;11.55;;
17199;SDS011;8716;52.268;20.968;2023-12-28T01:35:20;14.55;;;13.40;;
17199;SDS011;8716;52.268;20.968;2023-12-28T01:37:48;11.00;;;10.40;;
17199;SDS011;8716;52.268;20.968;2023-12-28T01:40:16;9.95;;;9.48;;
17199;SDS011;8716;52.268;20.968;2023-12-28T01:42:45;12.70;;;10.98;;
17199;SDS011;8716;52.268;20.968;2023-12-28T01:45:13;13.25;;;9.57;;
17199;SDS011;8716;52.268;20.968;2023-12-28T01:47:42;15.10;;;14.32;;
17199;SDS011;8716;52.268;20.968;2023-12-28T01:50:10;35.17;;;14.70;;
17199;SDS011;8716;52.268;20.968;2023-12-28T01:52:40;17.15;;;10.18;;
17199;SDS011;8716;52.268;20.968;2023-12-28T01:55:09;9.05;;;8.55;;
17199;SDS011;8716;52.268;20.968;2023-12-28T01:57:37;15.43;;;11.88;;
17199;SDS011;8716;52.268;20.968;2023-12-28T02:00:06;13.38;;;10.52;;
17199;SDS011;8716;52.268;20.968;2023-12-28T02:02:42;11.05;;;10.48;;
17199;SDS011;8716;52.268;20.968;2023-12-28T02:05:11;13.88;;;12.00;;
17199;SDS011;8716;52.268;20.968;2023-12-28T02:07:41;11.48;;;10.90;;
17199;SDS011;8716;52.268;20.968;2023-12-28T02:10:10;16.00;;;11.05;;
17199;SDS011;8716;52.268;20.968;2023-12-28T02:12:38;11.45;;;10.23;;
17199;SDS011;8716;52.268;20.968;2023-12-28T02:15:07;14.88;;;7.68;;
17199;SDS011;8716;52.268;20.968;2023-12-28T02:17:37;11.05;;;10.45;;
17199;SDS011;8716;52.268;20.968;2023-12-28T02:20:11;7.10;;;6.45;;
17199;SDS011;8716;52.268;20.968;2023-12-28T02:22:41;7.05;;;6.65;;
17199;SDS011;8716;52.268;20.968;2023-12-28T02:25:11;9.48;;;8.98;;
17199;SDS011;8716;52.268;20.968;2023-12-28T02:27:40;13.48;;;11.02;;
17199;SDS011;8716;52.268;20.968;2023-12-28T02:30:10;9.45;;;8.95;;
17199;SDS011;8716;52.268;20.968;2023-12-28T02:32:43;11.30;;;8.88;;
17199;SDS011;8716;52.268;20.968;2023-12-28T02:35:23;9.23;;;8.73;;
17199;SDS011;8716;52.268;20.968;2023-12-28T02:37:55;9.68;;;9.18;;
17199;SDS011;8716;52.268;20.968;2023-12-28T02:40:27;10.00;;;9.35;;
17199;SDS011;8716;52.268;20.968;2023-12-28T02:42:57;11.48;;;10.88;;
17199;SDS011;8716;52.268;20.968;2023-12-28T02:45:26;16.80;;;8.73;;
17199;SDS011;8716;52.268;20.968;2023-12-28T02:47:54;9.68;;;9.18;;
17199;SDS011;8716;52.268;20.968;2023-12-28T02:50:23;13.60;;;11.00;;
17199;SDS011;8716;52.268;20.968;2023-12-28T02:52:51;10.90;;;10.30;;
17199;SDS011;8716;52.268;20.968;2023-12-28T02:55:20;12.60;;;8.48;;
17199;SDS011;8716;52.268;20.968;2023-12-28T02:57:50;8.85;;;8.32;;
17199;SDS011;8716;52.268;20.968;2023-12-28T03:00:22;10.35;;;7.38;;
17199;SDS011;8716;52.268;20.968;2023-12-28T03:02:50;7.90;;;7.50;;
17199;SDS011;8716;52.268;20.968;2023-12-28T03:05:18;9.60;;;9.10;;
17199;SDS011;8716;52.268;20.968;2023-12-28T03:07:48;9.63;;;9.13;;
17199;SDS011;8716;52.268;20.968;2023-12-28T03:10:17;14.80;;;11.27;;
17199;SDS011;8716;52.268;20.968;2023-12-28T03:12:45;12.07;;;8.90;;
17199;SDS011;8716;52.268;20.968;2023-12-28T03:15:18;9.00;;;8.50;;
17199;SDS011;8716;52.268;20.968;2023-12-28T03:17:48;11.13;;;7.95;;
17199;SDS011;8716;52.268;20.968;2023-12-28T03:20:16;8.75;;;8.27;;
17199;SDS011;8716;52.268;20.968;2023-12-28T03:22:48;8.32;;;6.60;;
17199;SDS011;8716;52.268;20.968;2023-12-28T03:25:19;6.78;;;5.97;;
17199;SDS011;8716;52.268;20.968;2023-12-28T03:27:47;9.73;;;7.45;;
17199;SDS011;8716;52.268;20.968;2023-12-28T03:30:18;7.32;;;6.95;;
17199;SDS011;8716;52.268;20.968;2023-12-28T03:32:46;9.38;;;8.88;;
17199;SDS011;8716;52.268;20.968;2023-12-28T03:35:16;12.35;;;11.75;;
17199;SDS011;8716;52.268;20.968;2023-12-28T03:37:45;12.98;;;10.82;;
17199;SDS011;8716;52.268;20.968;2023-12-28T03:40:13;7.45;;;6.95;;
17199;SDS011;8716;52.268;20.968;2023-12-28T03:42:47;10.65;;;7.88;;
17199;SDS011;8716;52.268;20.968;2023-12-28T03:45:16;7.43;;;7.03;;
17199;SDS011;8716;52.268;20.968;2023-12-28T03:47:45;13.73;;;7.88;;
17199;SDS011;8716;52.268;20.968;2023-12-28T03:50:16;9.50;;;8.52;;
17199;SDS011;8716;52.268;20.968;2023-12-28T03:52:44;21.58;;;10.05;;
17199;SDS011;8716;52.268;20.968;2023-12-28T03:55:13;8.32;;;6.10;;
17199;SDS011;8716;52.268;20.968;2023-12-28T03:57:41;8.63;;;8.13;;
17199;SDS011;8716;52.268;20.968;2023-12-28T04:00:13;7.75;;;7.35;;
17199;SDS011;8716;52.268;20.968;2023-12-28T04:02:46;8.98;;;8.48;;
17199;SDS011;8716;52.268;20.968;2023-12-28T04:05:17;8.18;;;6.95;;
17199;SDS011;8716;52.268;20.968;2023-12-28T04:07:45;5.70;;;5.43;;
17199;SDS011;8716;52.268;20.968;2023-12-28T04:10:15;7.93;;;7.55;;
17199;SDS011;8716;52.268;20.968;2023-12-28T04:12:56;13.32;;;9.10;;
17199;SDS011;8716;52.268;20.968;2023-12-28T04:15:27;9.60;;;7.75;;
17199;SDS011;8716;52.268;20.968;2023-12-28T04:17:57;14.95;;;6.78;;
17199;SDS011;8716;52.268;20.968;2023-12-28T04:20:27;8.32;;;7.03;;
17199;SDS011;8716;52.268;20.968;2023-12-28T04:22:55;8.90;;;7.20;;
17199;SDS011;8716;52.268;20.968;2023-12-28T04:25:24;6.97;;;6.57;;
17199;SDS011;8716;52.268;20.968;2023-12-28T04:27:52;7.68;;;5.70;;
17199;SDS011;8716;52.268;20.968;2023-12-28T04:30:23;9.25;;;8.75;;
17199;SDS011;8716;52.268;20.968;2023-12-28T04:32:51;8.23;;;7.80;;
17199;SDS011;8716;52.268;20.968;2023-12-28T04:35:21;8.23;;;7.80;;
17199;SDS011;8716;52.268;20.968;2023-12-28T04:37:49;12.82;;;8.70;;
17199;SDS011;8716;52.268;20.968;2023-12-28T04:40:17;15.77;;;8.68;;
17199;SDS011;8716;52.268;20.968;2023-12-28T04:42:46;12.23;;;5.93;;
17199;SDS011;8716;52.268;20.968;2023-12-28T04:45:15;9.90;;;9.40;;
17199;SDS011;8716;52.268;20.968;2023-12-28T04:47:43;5.97;;;5.65;;
17199;SDS011;8716;52.268;20.968;2023-12-28T04:50:11;7.35;;;6.95;;
17199;SDS011;8716;52.268;20.968;2023-12-28T04:52:41;8.85;;;5.93;;
17199;SDS011;8716;52.268;20.968;2023-12-28T04:55:09;10.13;;;8.35;;
17199;SDS011;8716;52.268;20.968;2023-12-28T04:57:38;8.80;;;7.88;;
17199;SDS011;8716;52.268;20.968;2023-12-28T05:00:09;12.63;;;7.72;;
17199;SDS011;8716;52.268;20.968;2023-12-28T05:02:38;10.27;;;6.88;;
17199;SDS011;8716;52.268;20.968;2023-12-28T05:05:07;14.07;;;7.30;;
17199;SDS011;8716;52.268;20.968;2023-12-28T05:07:38;10.82;;;9.43;;
17199;SDS011;8716;52.268;20.968;2023-12-28T05:10:08;8.48;;;8.00;;
17199;SDS011;8716;52.268;20.968;2023-12-28T05:12:36;8.02;;;7.63;;
17199;SDS011;8716;52.268;20.968;2023-12-28T05:15:10;10.55;;;10.00;;
17199;SDS011;8716;52.268;20.968;2023-12-28T05:17:39;16.45;;;7.93;;
17199;SDS011;8716;52.268;20.968;2023-12-28T05:20:08;8.15;;;7.40;;
17199;SDS011;8716;52.268;20.968;2023-12-28T05:22:36;7.78;;;6.97;;
17199;SDS011;8716;52.268;20.968;2023-12-28T05:25:05;10.30;;;9.27;;
17199;SDS011;8716;52.268;20.968;2023-12-28T05:27:37;10.18;;;7.28;;
17199;SDS011;8716;52.268;20.968;2023-12-28T05:30:06;9.60;;;7.82;;
17199;SDS011;8716;52.268;20.968;2023-12-28T05:32:36;9.57;;;7.88;;
17199;SDS011;8716;52.268;20.968;2023-12-28T05:35:04;7.25;;;6.85;;
17199;SDS011;8716;52.268;20.968;2023-12-28T05:37:33;10.65;;;10.05;;
17199;SDS011;8716;52.268;20.968;2023-12-28T05:40:02;11.57;;;10.45;;
17199;SDS011;8716;52.268;20.968;2023-12-28T05:42:32;11.75;;;9.40;;
17199;SDS011;8716;52.268;20.968;2023-12-28T05:45:00;20.42;;;10.77;;
17199;SDS011;8716;52.268;20.968;2023-12-28T05:47:28;13.18;;;8.77;;
17199;SDS011;8716;52.268;20.968;2023-12-28T05:49:57;9.05;;;8.05;;
17199;SDS011;8716;52.268;20.968;2023-12-28T05:52:25;6.82;;;6.45;;
17199;SDS011;8716;52.268;20.968;2023-12-28T05:54:56;9.13;;;8.63;;
17199;SDS011;8716;52.268;20.968;2023-12-28T05:57:24;14.35;;;7.90;;
17199;SDS011;8716;52.268;20.968;2023-12-28T05:59:58;9.13;;;7.28;;
17199;SDS011;8716;52.268;20.968;2023-12-28T06:02:26;11.50;;;8.05;;
17199;SDS011;8716;52.268;20.968;2023-12-28T06:04:55;7.97;;;7.57;;
17199;SDS011;8716;52.268;20.968;2023-12-28T06:07:23;8.93;;;8.45;;
17199;SDS011;8716;52.268;20.968;2023-12-28T06:09:52;12.57;;;9.48;;
17199;SDS011;8716;52.268;20.968;2023-12-28T06:12:20;9.05;;;8.55;;
17199;SDS011;8716;52.268;20.968;2023-12-28T06:14:48;7.97;;;7.57;;
17199;SDS011;8716;52.268;20.968;2023-12-28T06:17:18;8.07;;;7.68;;
17199;SDS011;8716;52.268;20.968;2023-12-28T06:19:46;12.10;;;11.50;;
17199;SDS011;8716;52.268;20.968;2023-12-28T06:22:16;8.43;;;7.97;;
17199;SDS011;8716;52.268;20.968;2023-12-28T06:24:44;9.55;;;9.05;;
17199;SDS011;8716;52.268;20.968;2023-12-28T06:27:13;8.88;;;6.97;;
17199;SDS011;8716;52.268;20.968;2023-12-28T06:29:41;11.95;;;8.40;;
17199;SDS011;8716;52.268;20.968;2023-12-28T06:32:09;17.52;;;11.68;;
17199;SDS011;8716;52.268;20.968;2023-12-28T06:34:39;10.88;;;9.65;;
17199;SDS011;8716;52.268;20.968;2023-12-28T06:37:07;9.77;;;6.85;;
17199;SDS011;8716;52.268;20.968;2023-12-28T06:39:35;6.60;;;6.15;;
17199;SDS011;8716;52.268;20.968;2023-12-28T06:42:04;7.88;;;7.47;;
17199;SDS011;8716;52.268;20.968;2023-12-28T06:44:32;9.77;;;9.05;;
17199;SDS011;8716;52.268;20.968;2023-12-28T06:47:01;10.05;;;9.55;;
17199;SDS011;8716;52.268;20.968;2023-12-28T06:49:29;23.70;;;8.68;;
17199;SDS011;8716;52.268;20.968;2023-12-28T06:51:59;9.20;;;8.70;;
17199;SDS011;8716;52.268;20.968;2023-12-28T06:54:27;10.75;;;9.98;;
17199;SDS011;8716;52.268;20.968;2023-12-28T06:56:55;7.97;;;7.57;;
17199;SDS011;8716;52.268;20.968;2023-12-28T06:59:23;10.27;;;9.73;;
17199;SDS011;8716;52.268;20.968;2023-12-28T07:01:52;11.73;;;9.15;;
17199;SDS011;8716;52.268;20.968;2023-12-28T07:04:20;14.57;;;9.07;;
17199;SDS011;8716;52.268;20.968;2023-12-28T07:06:48;11.38;;;8.10;;
17199;SDS011;8716;52.268;20.968;2023-12-28T07:09:18;20.60;;;10.55;;
17199;SDS011;8716;52.268;20.968;2023-12-28T07:11:46;8.98;;;8.48;;
17199;SDS011;8716;52.268;20.968;2023-12-28T07:14:15;10.93;;;10.15;;
17199;SDS011;8716;52.268;20.968;2023-12-28T07:16:43;12.95;;;9.70;;
17199;SDS011;8716;52.268;20.968;2023-12-28T07:19:11;7.28;;;6.88;;
17199;SDS011;8716;52.268;20.968;2023-12-28T07:21:40;9.02;;;8.52;;
17199;SDS011;8716;52.268;20.968;2023-12-28T07:24:08;16.23;;;9.43;;
17199;SDS011;8716;52.268;20.968;2023-12-28T07:26:38;8.55;;;6.03;;
17199;SDS011;8716;52.268;20.968;2023-12-28T07:29:06;13.52;;;8.05;;
17199;SDS011;8716;52.268;20.968;2023-12-28T07:31:34;9.40;;;7.53;;
17199;SDS011;8716;52.268;20.968;2023-12-28T07:34:03;8.65;;;8.18;;
17199;SDS011;8716;52.268;20.968;2023-12-28T07:36:32;8.70;;;8.20;;
17199;SDS011;8716;52.268;20.968;2023-12-28T07:39:00;8.65;;;8.15;;
17199;SDS011;8716;52.268;20.968;2023-12-28T07:41:29;8.75;;;8.27;;
17199;SDS011;8716;52.268;20.968;2023-12-28T07:43:59;12.43;;;11.80;;
17199;SDS011;8716;52.268;20.968;2023-12-28T07:46:27;8.05;;;7.65;;
17199;SDS011;8716;52.268;20.968;2023-12-28T07:48:55;7.18;;;6.78;;
17199;SDS011;8716;52.268;20.968;2023-12-28T07:51:24;9.82;;;9.10;;
17199;SDS011;8716;52.268;20.968;2023-12-28T07:53:52;7.07;;;6.70;;
17199;SDS011;8716;52.268;20.968;2023-12-28T07:56:20;9.13;;;8.63;;
17199;SDS011;8716;52.268;20.968;2023-12-28T07:58:49;10.45;;;9.45;;
17199;SDS011;8716;52.268;20.968;2023-12-28T08:01:19;9.20;;;8.70;;
17199;SDS011;8716;52.268;20.968;2023-12-28T08:03:47;10.18;;;9.68;;
17199;SDS011;8716;52.268;20.968;2023-12-28T08:06:15;13.05;;;9.88;;
17199;SDS011;8716;52.268;20.968;2023-12-28T08:08:44;8.35;;;7.93;;
17199;SDS011;8716;52.268;20.968;2023-12-28T08:11:12;12.68;;;12.00;;
17199;SDS011;8716;52.268;20.968;2023-12-28T08:13:40;17.60;;;12.38;;
17199;SDS011;8716;52.268;20.968;2023-12-28T08:16:08;13.25;;;10.65;;
17199;SDS011;8716;52.268;20.968;2023-12-28T08:18:38;10.25;;;7.80;;
17199;SDS011;8716;52.268;20.968;2023-12-28T08:21:06;9.05;;;8.43;;
17199;SDS011;8716;52.268;20.968;2023-12-28T08:23:34;9.90;;;9.40;;
17199;SDS011;8716;52.268;20.968;2023-12-28T08:26:03;10.13;;;9.63;;
17199;SDS011;8716;52.268;20.968;2023-12-28T08:28:33;10.45;;;9.90;;
17199;SDS011;8716;52.268;20.968;2023-12-28T08:31:01;10.30;;;9.80;;
17199;SDS011;8716;52.268;20.968;2023-12-28T08:33:30;14.73;;;9.00;;
17199;SDS011;8716;52.268;20.968;2023-12-28T08:35:59;11.82;;;11.23;;
17199;SDS011;8716;52.268;20.968;2023-12-28T08:38:28;10.85;;;10.18;;
17199;SDS011;8716;52.268;20.968;2023-12-28T08:40:56;15.48;;;10.50;;
17199;SDS011;8716;52.268;20.968;2023-12-28T08:43:24;6.35;;;5.68;;
17199;SDS011;8716;52.268;20.968;2023-12-28T08:45:53;10.48;;;9.15;;
17199;SDS011;8716;52.268;20.968;2023-12-28T08:48:22;9.32;;;8.82;;
17199;SDS011;8716;52.268;20.968;2023-12-28T08:50:50;7.57;;;7.17;;
17199;SDS011;8716;52.268;20.968;2023-12-28T08:53:20;8.73;;;8.23;;
17199;SDS011;8716;52.268;20.968;2023-12-28T08:55:48;11.30;;;10.10;;
17199;SDS011;8716;52.268;20.968;2023-12-28T08:58:16;7.53;;;7.13;;
17199;SDS011;8716;52.268;20.968;2023-12-28T09:00:45;8.23;;;7.83;;
17199;SDS011;8716;52.268;20.968;2023-12-28T09:03:15;9.95;;;6.50;;
17199;SDS011;8716;52.268;20.968;2023-12-28T09:05:45;9.30;;;8.52;;
17199;SDS011;8716;52.268;20.968;2023-12-28T09:08:13;6.40;;;6.00;;
17199;SDS011;8716;52.268;20.968;2023-12-28T09:10:43;6.88;;;6.47;;
17199;SDS011;8716;52.268;20.968;2023-12-28T09:13:14;8.00;;;7.60;;
17199;SDS011;8716;52.268;20.968;2023-12-28T09:15:44;9.87;;;9.37;;
17199;SDS011;8716;52.268;20.968;2023-12-28T09:18:13;5.90;;;5.60;;
17199;SDS011;8716;52.268;20.968;2023-12-28T09:20:42;6.78;;;4.70;;
17199;SDS011;8716;52.268;20.968;2023-12-28T09:23:10;8.80;;;8.30;;
17199;SDS011;8716;52.268;20.968;2023-12-28T09:25:39;7.35;;;6.55;;
17199;SDS011;8716;52.268;20.968;2023-12-28T09:28:09;11.77;;;6.90;;
17199;SDS011;8716;52.268;20.968;2023-12-28T09:30:37;6.00;;;5.70;;
17199;SDS011;8716;52.268;20.968;2023-12-28T09:33:06;7.30;;;6.90;;
17199;SDS011;8716;52.268;20.968;2023-12-28T09:35:34;11.13;;;7.13;;
17199;SDS011;8716;52.268;20.968;2023-12-28T09:38:03;15.93;;;7.03;;
17199;SDS011;8716;52.268;20.968;2023-12-28T09:40:31;9.23;;;7.32;;
17199;SDS011;8716;52.268;20.968;2023-12-28T09:43:01;7.47;;;5.97;;
17199;SDS011;8716;52.268;20.968;2023-12-28T09:45:36;10.23;;;7.40;;
17199;SDS011;8716;52.268;20.968;2023-12-28T09:48:22;9.40;;;7.27;;
17199;SDS011;8716;52.268;20.968;2023-12-28T09:50:51;6.40;;;6.03;;
17199;SDS011;8716;52.268;20.968;2023-12-28T09:53:22;9.45;;;6.13;;
17199;SDS011;8716;52.268;20.968;2023-12-28T09:55:53;7.60;;;7.20;;
17199;SDS011;8716;52.268;20.968;2023-12-28T09:58:21;7.87;;;7.30;;
17199;SDS011;8716;52.268;20.968;2023-12-28T10:00:51;7.60;;;7.20;;
17199;SDS011;8716;52.268;20.968;2023-12-28T10:03:19;7.50;;;7.10;;
17199;SDS011;8716;52.268;20.968;2023-12-28T10:05:48;9.10;;;5.73;;
17199;SDS011;8716;52.268;20.968;2023-12-28T10:08:16;5.13;;;4.83;;
17199;SDS011;8716;52.268;20.968;2023-12-28T10:10:44;7.07;;;6.67;;
17199;SDS011;8716;52.268;20.968;2023-12-28T10:13:17;9.47;;;8.97;;
17199;SDS011;8716;52.268;20.968;2023-12-28T10:15:46;5.43;;;5.13;;
17199;SDS011;8716;52.268;20.968;2023-12-28T10:18:18;9.90;;;7.97;;
17199;SDS011;8716;52.268;20.968;2023-12-28T10:20:50;8.40;;;7.77;;
17199;SDS011;8716;52.268;20.968;2023-12-28T10:23:19;6.60;;;6.20;;
17199;SDS011;8716;52.268;20.968;2023-12-28T10:25:48;9.00;;;3.80;;
17199;SDS011;8716;52.268;20.968;2023-12-28T10:28:20;8.43;;;5.60;;
17199;SDS011;8716;52.268;20.968;2023-12-28T10:30:48;4.40;;;4.10;;
17199;SDS011;8716;52.268;20.968;2023-12-28T10:33:24;8.00;;;7.60;;
17199;SDS011;8716;52.268;20.968;2023-12-28T10:35:53;8.33;;;7.90;;
17199;SDS011;8716;52.268;20.968;2023-12-28T10:38:26;6.27;;;5.90;;
17199;SDS011;8716;52.268;20.968;2023-12-28T10:41:01;9.40;;;8.90;;
17199;SDS011;8716;52.268;20.968;2023-12-28T10:43:31;8.90;;;7.23;;
17199;SDS011;8716;52.268;20.968;2023-12-28T10:46:07;8.20;;;5.70;;
17199;SDS011;8716;52.268;20.968;2023-12-28T10:48:38;6.90;;;6.50;;
17199;SDS011;8716;52.268;20.968;2023-12-28T10:51:10;5.73;;;5.43;;
17199;SDS011;8716;52.268;20.968;2023-12-28T10:53:45;6.83;;;5.40;;
17199;SDS011;8716;52.268;20.968;2023-12-28T10:56:24;7.63;;;7.23;;
17199;SDS011;8716;52.268;20.968;2023-12-28T10:59:03;4.50;;;3.93;;
17199;SDS011;8716;52.268;20.968;2023-12-28T11:01:39;6.40;;;6.00;;
17199;SDS011;8716;52.268;20.968;2023-12-28T11:04:13;6.07;;;5.70;;
17199;SDS011;8716;52.268;20.968;2023-12-28T11:06:49;10.07;;;6.50;;
17199;SDS011;8716;52.268;20.968;2023-12-28T11:09:20;6.37;;;6.00;;
17199;SDS011;8716;52.268;20.968;2023-12-28T11:11:49;7.50;;;7.10;;
17199;SDS011;8716;52.268;20.968;2023-12-28T11:14:21;5.90;;;5.60;;
17199;SDS011;8716;52.268;20.968;2023-12-28T11:16:50;7.30;;;6.90;;
17199;SDS011;8716;52.268;20.968;2023-12-28T11:19:20;9.02;;;5.85;;
17199;SDS011;8716;52.268;20.968;2023-12-28T11:21:50;9.37;;;8.87;;
17199;SDS011;8716;52.268;20.968;2023-12-28T11:24:20;6.53;;;6.13;;
17199;SDS011;8716;52.268;20.968;2023-12-28T11:26:51;6.50;;;6.13;;
17199;SDS011;8716;52.268;20.968;2023-12-28T11:29:21;5.67;;;5.37;;
17199;SDS011;8716;52.268;20.968;2023-12-28T11:31:53;5.60;;;5.07;;
17199;SDS011;8716;52.268;20.968;2023-12-28T11:34:25;5.93;;;5.63;;
17199;SDS011;8716;52.268;20.968;2023-12-28T11:36:56;6.53;;;6.13;;
17199;SDS011;8716;52.268;20.968;2023-12-28T11:39:29;11.27;;;7.90;;
17199;SDS011;8716;52.268;20.968;2023-12-28T11:42:00;6.67;;;6.30;;
17199;SDS011;8716;52.268;20.968;2023-12-28T11:44:29;6.10;;;5.80;;
17199;SDS011;8716;52.268;20.968;2023-12-28T11:46:58;9.57;;;9.07;;
17199;SDS011;8716;52.268;20.968;2023-12-28T11:49:28;4.50;;;4.20;;
17199;SDS011;8716;52.268;20.968;2023-12-28T11:51:57;7.90;;;6.37;;
17199;SDS011;8716;52.268;20.968;2023-12-28T11:54:26;6.10;;;5.80;;
17199;SDS011;8716;52.268;20.968;2023-12-28T11:56:55;5.40;;;5.10;;
17199;SDS011;8716;52.268;20.968;2023-12-28T11:59:23;4.67;;;4.37;;
17199;SDS011;8716;52.268;20.968;2023-12-28T12:01:52;5.33;;;5.03;;
17199;SDS011;8716;52.268;20.968;2023-12-28T12:04:21;4.97;;;4.67;;
17199;SDS011;8716;52.268;20.968;2023-12-28T12:06:51;10.50;;;7.37;;
17199;SDS011;8716;52.268;20.968;2023-12-28T12:09:20;10.90;;;6.73;;
17199;SDS011;8716;52.268;20.968;2023-12-28T12:11:49;7.03;;;6.63;;
17199;SDS011;8716;52.268;20.968;2023-12-28T12:14:20;6.07;;;5.70;;
17199;SDS011;8716;52.268;20.968;2023-12-28T12:16:48;4.23;;;3.97;;
17199;SDS011;8716;52.268;20.968;2023-12-28T12:19:22;6.43;;;6.07;;
17199;SDS011;8716;52.268;20.968;2023-12-28T12:21:53;11.80;;;8.67;;
17199;SDS011;8716;52.268;20.968;2023-12-28T12:24:22;9.33;;;6.60;;
17199;SDS011;8716;52.268;20.968;2023-12-28T12:26:51;7.03;;;6.63;;
17199;SDS011;8716;52.268;20.968;2023-12-28T12:29:20;6.22;;;5.03;;
17199;SDS011;8716;52.268;20.968;2023-12-28T12:31:55;5.00;;;4.60;;
17199;SDS011;8716;52.268;20.968;2023-12-28T12:34:24;5.10;;;4.33;;
17199;SDS011;8716;52.268;20.968;2023-12-28T12:36:54;5.43;;;4.90;;
17199;SDS011;8716;52.268;20.968;2023-12-28T12:39:25;6.43;;;5.93;;
17199;SDS011;8716;52.268;20.968;2023-12-28T12:41:53;4.33;;;4.03;;
17199;SDS011;8716;52.268;20.968;2023-12-28T12:44:23;3.90;;;3.70;;
17199;SDS011;8716;52.268;20.968;2023-12-28T12:46:58;3.33;;;3.13;;
17199;SDS011;8716;52.268;20.968;2023-12-28T12:49:26;8.63;;;4.37;;
17199;SDS011;8716;52.268;20.968;2023-12-28T12:51:56;5.33;;;5.03;;
17199;SDS011;8716;52.268;20.968;2023-12-28T12:54:29;5.80;;;5.50;;
17199;SDS011;8716;52.268;20.968;2023-12-28T12:56:58;7.07;;;6.60;;
17199;SDS011;8716;52.268;20.968;2023-12-28T12:59:26;7.37;;;6.97;;
17199;SDS011;8716;52.268;20.968;2023-12-28T13:01:54;4.83;;;4.53;;
17199;SDS011;8716;52.268;20.968;2023-12-28T13:04:23;5.03;;;4.72;;
17199;SDS011;8716;52.268;20.968;2023-12-28T13:06:51;3.43;;;3.23;;
17199;SDS011;8716;52.268;20.968;2023-12-28T13:09:21;6.37;;;6.00;;
17199;SDS011;8716;52.268;20.968;2023-12-28T13:11:49;5.53;;;5.23;;
17199;SDS011;8716;52.268;20.968;2023-12-28T13:14:18;6.00;;;4.40;;
17199;SDS011;8716;52.268;20.968;2023-12-28T13:16:47;5.43;;;3.30;;
17199;SDS011;8716;52.268;20.968;2023-12-28T13:19:24;3.83;;;3.63;;
17199;SDS011;8716;52.268;20.968;2023-12-28T13:21:55;6.70;;;4.30;;
17199;SDS011;8716;52.268;20.968;2023-12-28T13:24:24;5.70;;;5.40;;
17199;SDS011;8716;52.268;20.968;2023-12-28T13:26:53;21.60;;;6.37;;
17199;SDS011;8716;52.268;20.968;2023-12-28T13:29:21;5.20;;;4.40;;
17199;SDS011;8716;52.268;20.968;2023-12-28T13:31:49;3.80;;;3.17;;
17199;SDS011;8716;52.268;20.968;2023-12-28T13:34:18;8.43;;;4.20;;
17199;SDS011;8716;52.268;20.968;2023-12-28T13:36:47;5.70;;;5.40;;
17199;SDS011;8716;52.268;20.968;2023-12-28T13:39:15;3.83;;;3.63;;
17199;SDS011;8716;52.268;20.968;2023-12-28T13:41:45;4.07;;;3.83;;
17199;SDS011;8716;52.268;20.968;2023-12-28T13:44:13;4.83;;;4.53;;
17199;SDS011;8716;52.268;20.968;2023-12-28T13:46:42;7.30;;;4.80;;
17199;SDS011;8716;52.268;20.968;2023-12-28T13:49:10;5.80;;;4.27;;
17199;SDS011;8716;52.268;20.968;2023-12-28T13:51:38;6.10;;;5.80;;
17199;SDS011;8716;52.268;20.968;2023-12-28T13:54:06;4.23;;;3.97;;
17199;SDS011;8716;52.268;20.968;2023-12-28T13:56:34;5.57;;;5.27;;
17199;SDS011;8716;52.268;20.968;2023-12-28T13:59:04;4.63;;;4.33;;
17199;SDS011;8716;52.268;20.968;2023-12-28T14:01:32;4.27;;;3.90;;
17199;SDS011;8716;52.268;20.968;2023-12-28T14:04:00;3.83;;;3.63;;
17199;SDS011;8716;52.268;20.968;2023-12-28T14:06:30;5.90;;;5.60;;
17199;SDS011;8716;52.268;20.968;2023-12-28T14:08:58;4.27;;;4.00;;
17199;SDS011;8716;52.268;20.968;2023-12-28T14:11:27;6.33;;;5.73;;
17199;SDS011;8716;52.268;20.968;2023-12-28T14:13:55;3.93;;;3.73;;
17199;SDS011;8716;52.268;20.968;2023-12-28T14:16:25;5.20;;;4.90;;
17199;SDS011;8716;52.268;20.968;2023-12-28T14:18:53;6.10;;;4.40;;
17199;SDS011;8716;52.268;20.968;2023-12-28T14:21:22;5.57;;;5.27;;
17199;SDS011;8716;52.268;20.968;2023-12-28T14:23:51;5.93;;;5.63;;
17199;SDS011;8716;52.268;20.968;2023-12-28T14:26:19;5.75;;;5.45;;
17199;SDS011;8716;52.268;20.968;2023-12-28T14:28:49;4.87;;;4.47;;
17199;SDS011;8716;52.268;20.968;2023-12-28T14:31:18;9.57;;;7.23;;
17199;SDS011;8716;52.268;20.968;2023-12-28T14:33:49;3.20;;;3.00;;
17199;SDS011;8716;52.268;20.968;2023-12-28T14:36:22;5.33;;;5.03;;
17199;SDS011;8716;52.268;20.968;2023-12-28T14:38:55;4.67;;;4.37;;
17199;SDS011;8716;52.268;20.968;2023-12-28T14:41:24;8.27;;;7.83;;
17199;SDS011;8716;52.268;20.968;2023-12-28T14:43:52;14.47;;;7.30;;
17199;SDS011;8716;52.268;20.968;2023-12-28T14:46:20;6.03;;;5.73;;
17199;SDS011;8716;52.268;20.968;2023-12-28T14:48:50;9.03;;;4.97;;
17199;SDS011;8716;52.268;20.968;2023-12-28T14:51:19;4.90;;;4.67;;
17199;SDS011;8716;52.268;20.968;2023-12-28T14:53:48;5.90;;;4.63;;